Flight Track Log - Related Links

Times and Time Zones

All times are in EDT time to prevent confusion due to time zone crossing. See the CRQ907 flight status page for this flight to view local times or setup timezone preferences in your user account.

Time Position Orientation Groundspeed Altitude Reporting Facility
EDT Latitude Longitude Course Direction KTS MPH feet Rate Location/Type
Sun 11:53:00 AM 52.2854 -78.5596 North  Level Estimated
Sun 11:54:00 AM 52.3433 -78.5452 North  Level Estimated
Sun 11:55:00 AM 52.4013 -78.5307 North  Level Estimated
Sun 11:56:00 AM 52.4593 -78.5161 North  Level Estimated
Sun 11:57:00 AM 52.5172 -78.5016 North  Level Estimated
Sun 11:58:00 AM 52.5752 -78.4870 North  Level Estimated
Sun 11:59:00 AM 52.6332 -78.4723 North  Level Estimated
Sun 12:00:00 PM 52.6911 -78.4576 North  Level Estimated
Sun 12:01:00 PM 52.7491 -78.4429 North  Level Estimated
Sun 12:02:00 PM 52.8070 -78.4282 North  Level Estimated
Sun 12:03:00 PM 52.8650 -78.4134 North  Level Estimated
Sun 12:04:00 PM 52.9229 -78.3985 North  Level Estimated
Sun 12:05:00 PM 52.9809 -78.3836 North  Level Estimated
Sun 12:06:00 PM 53.0388 -78.3687 North  Level Estimated
Sun 12:07:00 PM 53.0968 -78.3538 North  Level Estimated
Sun 12:08:00 PM 53.1547 -78.3388 North  Level Estimated
Sun 12:09:00 PM 53.2127 -78.3237 North  Level Estimated
Sun 12:10:00 PM 53.2706 -78.3086 North  Level Estimated
Sun 12:11:00 PM 53.3285 -78.2935 North  Level Estimated
Sun 12:12:00 PM 53.3865 -78.2784 North  Level Estimated
Sun 12:13:00 PM 53.4444 -78.2632 North  Level Estimated
Sun 12:14:00 PM 53.5023 -78.2479 North  Level Estimated
Sun 12:15:00 PM 53.5603 -78.2326 North  Level Estimated
Sun 12:16:00 PM 53.6182 -78.2173 North  Level Estimated
Sun 12:17:00 PM 53.6761 -78.2019 North  Level Estimated
Sun 12:18:00 PM 53.7341 -78.1865 North  Level Estimated
Sun 12:19:00 PM 53.7920 -78.1710 North  Level Estimated
Sun 12:20:00 PM 53.8499 -78.1555 North  Level Estimated
Sun 12:21:00 PM 53.9078 -78.1400 North  Level Estimated
Sun 12:22:00 PM 53.9657 -78.1244 North  Level Estimated
Sun 12:23:00 PM 54.0237 -78.1088 North  Level Estimated
Sun 12:24:00 PM 54.0816 -78.0931 North  Level Estimated
Sun 12:25:00 PM 54.1395 -78.0774 North  Level Estimated
Sun 12:26:00 PM 54.1974 -78.0616 North  Level Estimated
Sun 12:27:00 PM 54.2553 -78.0458 North  Level Estimated
Sun 12:28:00 PM 54.3132 -78.0300 North  Level Estimated
Sun 12:29:00 PM 54.3711 -78.0141 North  Level Estimated
Sun 12:30:00 PM 54.4290 -77.9981 North  Level Estimated
Sun 12:31:00 PM 54.4869 -77.9821 North  Level Estimated
Sun 12:32:00 PM 54.5448 -77.9661 North  Level Estimated
Sun 12:33:00 PM 54.6027 -77.9500 North  Level Estimated
Sun 12:34:00 PM 54.6606 -77.9339 North  Level Estimated
Sun 12:35:00 PM 54.7185 -77.9177 North  Level Estimated
Sun 12:36:00 PM 54.7763 -77.9015 North  Level Estimated
Sun 12:37:00 PM 54.8342 -77.8853 North  Level Estimated
Sun 12:38:00 PM 54.8921 -77.8690 North  Level Estimated
Sun 12:39:00 PM 54.9500 -77.8526 North  Level Estimated
Sun 12:40:00 PM 55.0079 -77.8362 North  Level Estimated
Sun 12:41:00 PM 55.0658 -77.8198 North  Level Estimated
Sun 12:42:00 PM 55.1236 -77.8033 North  Level Estimated
Sun 12:43:00 PM 55.1815 -77.7867 North  Level Estimated
Sun 12:44:00 PM 55.2394 -77.7701 North  Level Estimated
Sun 12:45:00 PM 55.2814 -77.7581 North  Level Estimated
Sun 12:46:00 PM 55.2814 -77.7581 114° Southeast  Level Estimated
Sun 12:47:00 PM 55.2814 -77.7581 114° Southeast  Level Estimated
Sun 12:48:00 PM 55.2814 -77.7581 114° Southeast  Level Estimated
Sun 12:49:00 PM 55.2814 -77.7581 114° Southeast  Level Estimated
Sun 12:50:00 PM 55.2814 -77.7581 114° Southeast  Level Estimated
Sun 12:51:00 PM 55.2814 -77.7581 114° Southeast  Level Estimated
Sun 12:52:00 PM 55.2814 -77.7581 114° Southeast  Level Estimated
Sun 12:53:00 PM 55.2814 -77.7581 114° Southeast  Level Estimated
Sun 12:54:00 PM 55.2814 -77.7581 114° Southeast  Level Estimated
Sun 12:55:00 PM 55.2814 -77.7581 114° Southeast  Level Estimated
Sun 12:56:00 PM 55.2814 -77.7581 114° Southeast  Level Estimated
Sun 12:57:00 PM 55.2814 -77.7581 114° Southeast  Level Estimated
Sun 12:58:00 PM 55.2814 -77.7581 114° Southeast  Level Estimated
Sun 12:59:00 PM 55.2814 -77.7581 114° Southeast  Level Estimated
Sun 01:00:00 PM 55.2814 -77.7581 114° Southeast  Level Estimated

Login

Don't have an account? Register now (free) for customized features, flight alerts, and more!